sensor_id;sensor_type;location;lat;lon;timestamp;P1;durP1;ratioP1;P2;durP2;ratioP2
57309;SDS011;43153;50.984;18.204;2023-03-19T00:01:57;20.40;;;8.80;;
57309;SDS011;43153;50.984;18.204;2023-03-19T00:04:25;22.30;;;8.90;;
57309;SDS011;43153;50.984;18.204;2023-03-19T00:06:55;24.10;;;9.10;;
57309;SDS011;43153;50.984;18.204;2023-03-19T00:09:24;24.60;;;9.80;;
57309;SDS011;43153;50.984;18.204;2023-03-19T00:11:54;31.80;;;11.10;;
57309;SDS011;43153;50.984;18.204;2023-03-19T00:14:24;32.60;;;11.00;;
57309;SDS011;43153;50.984;18.204;2023-03-19T00:16:51;24.70;;;10.00;;
57309;SDS011;43153;50.984;18.204;2023-03-19T00:19:18;24.20;;;8.90;;
57309;SDS011;43153;50.984;18.204;2023-03-19T00:21:54;25.80;;;10.20;;
57309;SDS011;43153;50.984;18.204;2023-03-19T00:24:49;22.50;;;9.80;;
57309;SDS011;43153;50.984;18.204;2023-03-19T00:27:23;20.90;;;8.20;;
57309;SDS011;43153;50.984;18.204;2023-03-19T00:29:52;20.70;;;8.30;;
57309;SDS011;43153;50.984;18.204;2023-03-19T00:32:28;25.50;;;9.20;;
57309;SDS011;43153;50.984;18.204;2023-03-19T00:34:58;27.80;;;9.70;;
57309;SDS011;43153;50.984;18.204;2023-03-19T00:37:36;21.50;;;9.20;;
57309;SDS011;43153;50.984;18.204;2023-03-19T00:40:05;29.80;;;9.90;;
57309;SDS011;43153;50.984;18.204;2023-03-19T00:42:33;25.60;;;9.60;;
57309;SDS011;43153;50.984;18.204;2023-03-19T00:45:00;31.00;;;10.20;;
57309;SDS011;43153;50.984;18.204;2023-03-19T00:47:27;24.70;;;9.60;;
57309;SDS011;43153;50.984;18.204;2023-03-19T00:49:58;26.80;;;9.90;;
57309;SDS011;43153;50.984;18.204;2023-03-19T00:52:26;20.90;;;9.30;;
57309;SDS011;43153;50.984;18.204;2023-03-19T00:54:54;21.80;;;8.90;;
57309;SDS011;43153;50.984;18.204;2023-03-19T00:57:23;19.70;;;7.80;;
57309;SDS011;43153;50.984;18.204;2023-03-19T00:59:52;19.10;;;8.10;;
57309;SDS011;43153;50.984;18.204;2023-03-19T01:02:30;20.50;;;7.00;;
57309;SDS011;43153;50.984;18.204;2023-03-19T01:04:57;22.40;;;7.90;;
57309;SDS011;43153;50.984;18.204;2023-03-19T01:07:29;22.10;;;8.40;;
57309;SDS011;43153;50.984;18.204;2023-03-19T01:09:59;16.20;;;6.70;;
57309;SDS011;43153;50.984;18.204;2023-03-19T01:12:29;19.20;;;8.20;;
57309;SDS011;43153;50.984;18.204;2023-03-19T01:15:03;22.90;;;10.80;;
57309;SDS011;43153;50.984;18.204;2023-03-19T01:17:31;33.20;;;12.80;;
57309;SDS011;43153;50.984;18.204;2023-03-19T01:20:02;35.80;;;11.90;;
57309;SDS011;43153;50.984;18.204;2023-03-19T01:22:29;27.10;;;10.60;;
57309;SDS011;43153;50.984;18.204;2023-03-19T01:25:02;24.40;;;9.90;;
57309;SDS011;43153;50.984;18.204;2023-03-19T01:27:31;21.30;;;8.90;;
57309;SDS011;43153;50.984;18.204;2023-03-19T01:30:06;23.40;;;8.70;;
57309;SDS011;43153;50.984;18.204;2023-03-19T01:32:36;22.70;;;8.70;;
57309;SDS011;43153;50.984;18.204;2023-03-19T01:35:06;18.50;;;7.90;;
57309;SDS011;43153;50.984;18.204;2023-03-19T01:37:34;23.10;;;8.30;;
57309;SDS011;43153;50.984;18.204;2023-03-19T01:40:02;19.10;;;8.10;;
57309;SDS011;43153;50.984;18.204;2023-03-19T01:42:49;19.30;;;7.40;;
57309;SDS011;43153;50.984;18.204;2023-03-19T01:45:34;17.30;;;7.00;;
57309;SDS011;43153;50.984;18.204;2023-03-19T01:48:11;19.60;;;8.00;;
57309;SDS011;43153;50.984;18.204;2023-03-19T01:50:44;20.20;;;7.70;;
57309;SDS011;43153;50.984;18.204;2023-03-19T01:53:12;20.40;;;8.30;;
57309;SDS011;43153;50.984;18.204;2023-03-19T01:55:41;17.60;;;7.30;;
57309;SDS011;43153;50.984;18.204;2023-03-19T01:58:09;18.70;;;7.30;;
57309;SDS011;43153;50.984;18.204;2023-03-19T02:00:36;19.50;;;9.00;;
57309;SDS011;43153;50.984;18.204;2023-03-19T02:03:04;22.00;;;8.40;;
57309;SDS011;43153;50.984;18.204;2023-03-19T02:05:31;20.30;;;8.10;;
57309;SDS011;43153;50.984;18.204;2023-03-19T02:07:59;26.00;;;11.20;;
57309;SDS011;43153;50.984;18.204;2023-03-19T02:10:28;23.00;;;8.20;;
57309;SDS011;43153;50.984;18.204;2023-03-19T02:12:57;21.20;;;9.10;;
57309;SDS011;43153;50.984;18.204;2023-03-19T02:15:26;18.40;;;7.90;;
57309;SDS011;43153;50.984;18.204;2023-03-19T02:17:52;19.70;;;8.70;;
57309;SDS011;43153;50.984;18.204;2023-03-19T03:02:57;22.60;;;9.60;;
57309;SDS011;43153;50.984;18.204;2023-03-19T03:05:27;20.50;;;7.60;;
57309;SDS011;43153;50.984;18.204;2023-03-19T03:08:05;18.20;;;8.30;;
57309;SDS011;43153;50.984;18.204;2023-03-19T03:10:36;21.10;;;8.30;;
57309;SDS011;43153;50.984;18.204;2023-03-19T03:13:02;22.20;;;9.40;;
57309;SDS011;43153;50.984;18.204;2023-03-19T03:15:32;21.10;;;8.50;;
57309;SDS011;43153;50.984;18.204;2023-03-19T03:18:03;21.50;;;8.40;;
57309;SDS011;43153;50.984;18.204;2023-03-19T03:20:38;18.80;;;8.10;;
57309;SDS011;43153;50.984;18.204;2023-03-19T03:23:20;21.30;;;9.10;;
57309;SDS011;43153;50.984;18.204;2023-03-19T03:25:50;27.10;;;11.20;;
57309;SDS011;43153;50.984;18.204;2023-03-19T03:28:21;23.80;;;9.90;;
57309;SDS011;43153;50.984;18.204;2023-03-19T03:30:59;27.00;;;10.50;;
57309;SDS011;43153;50.984;18.204;2023-03-19T03:33:28;23.40;;;10.50;;
57309;SDS011;43153;50.984;18.204;2023-03-19T03:36:04;27.70;;;11.10;;
57309;SDS011;43153;50.984;18.204;2023-03-19T03:38:32;22.10;;;9.20;;
57309;SDS011;43153;50.984;18.204;2023-03-19T03:43:33;24.40;;;9.90;;
57309;SDS011;43153;50.984;18.204;2023-03-19T03:46:11;21.20;;;8.80;;
57309;SDS011;43153;50.984;18.204;2023-03-19T03:48:38;19.30;;;8.10;;
57309;SDS011;43153;50.984;18.204;2023-03-19T03:51:04;24.50;;;10.30;;
57309;SDS011;43153;50.984;18.204;2023-03-19T03:53:33;21.50;;;9.50;;
57309;SDS011;43153;50.984;18.204;2023-03-19T03:56:00;19.60;;;8.20;;
57309;SDS011;43153;50.984;18.204;2023-03-19T03:58:27;23.60;;;9.00;;
57309;SDS011;43153;50.984;18.204;2023-03-19T04:00:54;19.70;;;7.80;;
57309;SDS011;43153;50.984;18.204;2023-03-19T04:03:20;20.60;;;8.90;;
57309;SDS011;43153;50.984;18.204;2023-03-19T04:05:48;21.80;;;9.10;;
57309;SDS011;43153;50.984;18.204;2023-03-19T04:08:16;17.90;;;8.50;;
57309;SDS011;43153;50.984;18.204;2023-03-19T04:10:49;20.20;;;9.60;;
57309;SDS011;43153;50.984;18.204;2023-03-19T04:13:16;24.10;;;9.80;;
57309;SDS011;43153;50.984;18.204;2023-03-19T04:15:42;22.30;;;9.20;;
57309;SDS011;43153;50.984;18.204;2023-03-19T04:20:47;20.90;;;8.90;;
57309;SDS011;43153;50.984;18.204;2023-03-19T04:23:19;19.60;;;8.80;;
57309;SDS011;43153;50.984;18.204;2023-03-19T04:25:48;19.90;;;8.20;;
57309;SDS011;43153;50.984;18.204;2023-03-19T04:28:16;35.20;;;13.80;;
57309;SDS011;43153;50.984;18.204;2023-03-19T04:30:46;36.90;;;15.10;;
57309;SDS011;43153;50.984;18.204;2023-03-19T04:33:13;42.30;;;19.40;;
57309;SDS011;43153;50.984;18.204;2023-03-19T04:35:45;30.80;;;13.00;;
57309;SDS011;43153;50.984;18.204;2023-03-19T04:38:11;26.70;;;12.00;;
57309;SDS011;43153;50.984;18.204;2023-03-19T04:40:41;18.00;;;9.10;;
57309;SDS011;43153;50.984;18.204;2023-03-19T04:43:23;20.40;;;9.50;;
57309;SDS011;43153;50.984;18.204;2023-03-19T04:46:11;22.30;;;9.20;;
57309;SDS011;43153;50.984;18.204;2023-03-19T04:48:44;21.50;;;9.90;;
57309;SDS011;43153;50.984;18.204;2023-03-19T04:51:15;20.80;;;9.60;;
57309;SDS011;43153;50.984;18.204;2023-03-19T04:53:46;19.00;;;8.50;;
57309;SDS011;43153;50.984;18.204;2023-03-19T04:56:32;20.30;;;8.70;;
57309;SDS011;43153;50.984;18.204;2023-03-19T04:59:06;18.30;;;8.40;;
57309;SDS011;43153;50.984;18.204;2023-03-19T05:01:44;22.50;;;9.90;;
57309;SDS011;43153;50.984;18.204;2023-03-19T05:04:14;21.80;;;9.80;;
57309;SDS011;43153;50.984;18.204;2023-03-19T05:06:41;20.30;;;8.50;;
57309;SDS011;43153;50.984;18.204;2023-03-19T05:09:13;18.30;;;8.20;;
57309;SDS011;43153;50.984;18.204;2023-03-19T05:11:39;22.80;;;9.50;;
57309;SDS011;43153;50.984;18.204;2023-03-19T05:14:16;24.90;;;9.10;;
57309;SDS011;43153;50.984;18.204;2023-03-19T05:16:44;19.60;;;8.50;;
57309;SDS011;43153;50.984;18.204;2023-03-19T05:19:27;18.10;;;7.60;;
57309;SDS011;43153;50.984;18.204;2023-03-19T05:22:01;17.80;;;8.00;;
57309;SDS011;43153;50.984;18.204;2023-03-19T05:24:34;23.00;;;9.90;;
57309;SDS011;43153;50.984;18.204;2023-03-19T05:27:04;23.00;;;9.60;;
57309;SDS011;43153;50.984;18.204;2023-03-19T05:29:36;19.90;;;9.40;;
57309;SDS011;43153;50.984;18.204;2023-03-19T05:32:09;22.20;;;9.50;;
57309;SDS011;43153;50.984;18.204;2023-03-19T05:34:39;23.20;;;10.10;;
57309;SDS011;43153;50.984;18.204;2023-03-19T05:37:15;21.70;;;9.50;;
57309;SDS011;43153;50.984;18.204;2023-03-19T05:39:43;24.60;;;9.30;;
57309;SDS011;43153;50.984;18.204;2023-03-19T05:44:44;18.30;;;7.80;;
57309;SDS011;43153;50.984;18.204;2023-03-19T05:47:22;22.40;;;9.50;;
57309;SDS011;43153;50.984;18.204;2023-03-19T05:49:55;22.50;;;8.90;;
57309;SDS011;43153;50.984;18.204;2023-03-19T05:52:25;15.60;;;7.50;;
57309;SDS011;43153;50.984;18.204;2023-03-19T05:54:54;16.50;;;7.80;;
57309;SDS011;43153;50.984;18.204;2023-03-19T05:57:20;16.70;;;8.00;;
57309;SDS011;43153;50.984;18.204;2023-03-19T05:59:47;16.10;;;7.20;;
57309;SDS011;43153;50.984;18.204;2023-03-19T06:02:17;17.90;;;7.30;;
57309;SDS011;43153;50.984;18.204;2023-03-19T06:04:44;18.20;;;6.80;;
57309;SDS011;43153;50.984;18.204;2023-03-19T06:07:29;16.40;;;8.00;;
57309;SDS011;43153;50.984;18.204;2023-03-19T06:10:18;16.70;;;7.50;;
57309;SDS011;43153;50.984;18.204;2023-03-19T06:12:45;18.80;;;8.10;;
57309;SDS011;43153;50.984;18.204;2023-03-19T06:15:11;20.60;;;9.00;;
57309;SDS011;43153;50.984;18.204;2023-03-19T06:17:41;19.50;;;9.00;;
57309;SDS011;43153;50.984;18.204;2023-03-19T06:20:14;19.30;;;8.70;;
57309;SDS011;43153;50.984;18.204;2023-03-19T06:22:41;18.20;;;7.10;;
57309;SDS011;43153;50.984;18.204;2023-03-19T06:25:08;15.60;;;7.50;;
57309;SDS011;43153;50.984;18.204;2023-03-19T06:27:34;18.20;;;7.60;;
57309;SDS011;43153;50.984;18.204;2023-03-19T06:30:03;18.40;;;8.30;;
57309;SDS011;43153;50.984;18.204;2023-03-19T06:32:37;17.30;;;8.10;;
57309;SDS011;43153;50.984;18.204;2023-03-19T06:35:04;17.40;;;7.90;;
57309;SDS011;43153;50.984;18.204;2023-03-19T06:37:38;15.00;;;7.70;;
57309;SDS011;43153;50.984;18.204;2023-03-19T06:40:08;15.20;;;6.60;;
57309;SDS011;43153;50.984;18.204;2023-03-19T06:42:36;17.30;;;8.40;;
57309;SDS011;43153;50.984;18.204;2023-03-19T06:45:08;15.50;;;7.50;;
57309;SDS011;43153;50.984;18.204;2023-03-19T06:47:36;17.40;;;8.60;;
57309;SDS011;43153;50.984;18.204;2023-03-19T06:50:09;19.90;;;8.40;;
57309;SDS011;43153;50.984;18.204;2023-03-19T06:52:37;17.80;;;7.70;;
57309;SDS011;43153;50.984;18.204;2023-03-19T06:55:15;18.70;;;8.40;;
57309;SDS011;43153;50.984;18.204;2023-03-19T06:57:50;16.40;;;8.10;;
57309;SDS011;43153;50.984;18.204;2023-03-19T07:00:21;16.00;;;7.60;;
57309;SDS011;43153;50.984;18.204;2023-03-19T07:02:58;20.10;;;8.20;;
57309;SDS011;43153;50.984;18.204;2023-03-19T07:08:02;18.90;;;9.00;;
57309;SDS011;43153;50.984;18.204;2023-03-19T07:10:38;15.30;;;7.70;;
57309;SDS011;43153;50.984;18.204;2023-03-19T07:13:10;19.70;;;9.20;;
57309;SDS011;43153;50.984;18.204;2023-03-19T07:15:44;19.60;;;9.40;;
57309;SDS011;43153;50.984;18.204;2023-03-19T07:18:31;18.90;;;8.50;;
57309;SDS011;43153;50.984;18.204;2023-03-19T07:21:04;18.60;;;8.90;;
57309;SDS011;43153;50.984;18.204;2023-03-19T07:23:38;19.00;;;8.70;;
57309;SDS011;43153;50.984;18.204;2023-03-19T07:26:16;20.10;;;7.70;;
57309;SDS011;43153;50.984;18.204;2023-03-19T07:28:50;17.60;;;8.40;;
57309;SDS011;43153;50.984;18.204;2023-03-19T07:31:24;23.30;;;10.20;;
57309;SDS011;43153;50.984;18.204;2023-03-19T07:33:53;17.00;;;8.00;;
57309;SDS011;43153;50.984;18.204;2023-03-19T07:36:24;19.70;;;8.40;;
57309;SDS011;43153;50.984;18.204;2023-03-19T07:38:59;16.40;;;8.90;;
57309;SDS011;43153;50.984;18.204;2023-03-19T07:41:28;17.90;;;8.90;;
57309;SDS011;43153;50.984;18.204;2023-03-19T07:43:57;20.70;;;9.00;;
57309;SDS011;43153;50.984;18.204;2023-03-19T07:46:24;17.90;;;8.50;;
57309;SDS011;43153;50.984;18.204;2023-03-19T07:48:53;17.00;;;7.40;;
57309;SDS011;43153;50.984;18.204;2023-03-19T07:51:19;14.80;;;8.20;;
57309;SDS011;43153;50.984;18.204;2023-03-19T07:53:49;18.20;;;8.50;;
57309;SDS011;43153;50.984;18.204;2023-03-19T07:56:16;14.70;;;8.30;;
57309;SDS011;43153;50.984;18.204;2023-03-19T07:58:43;18.70;;;8.40;;
57309;SDS011;43153;50.984;18.204;2023-03-19T08:01:14;19.10;;;7.60;;
57309;SDS011;43153;50.984;18.204;2023-03-19T08:03:48;15.40;;;8.10;;
57309;SDS011;43153;50.984;18.204;2023-03-19T08:06:14;13.10;;;6.50;;
57309;SDS011;43153;50.984;18.204;2023-03-19T08:08:40;12.10;;;6.30;;
57309;SDS011;43153;50.984;18.204;2023-03-19T08:11:07;13.70;;;5.90;;
57309;SDS011;43153;50.984;18.204;2023-03-19T08:13:33;14.20;;;6.00;;
57309;SDS011;43153;50.984;18.204;2023-03-19T08:16:03;14.60;;;6.90;;
57309;SDS011;43153;50.984;18.204;2023-03-19T08:18:35;14.50;;;7.00;;
57309;SDS011;43153;50.984;18.204;2023-03-19T08:21:03;13.80;;;6.00;;
57309;SDS011;43153;50.984;18.204;2023-03-19T08:23:35;15.00;;;6.40;;
57309;SDS011;43153;50.984;18.204;2023-03-19T08:26:02;15.80;;;6.50;;
57309;SDS011;43153;50.984;18.204;2023-03-19T08:28:31;14.30;;;6.60;;
57309;SDS011;43153;50.984;18.204;2023-03-19T08:31:04;13.40;;;6.60;;
57309;SDS011;43153;50.984;18.204;2023-03-19T08:33:34;12.40;;;6.30;;
57309;SDS011;43153;50.984;18.204;2023-03-19T08:36:07;15.60;;;7.00;;
57309;SDS011;43153;50.984;18.204;2023-03-19T08:38:36;13.80;;;6.50;;
57309;SDS011;43153;50.984;18.204;2023-03-19T08:41:04;13.70;;;7.00;;
57309;SDS011;43153;50.984;18.204;2023-03-19T08:43:34;12.20;;;5.90;;
57309;SDS011;43153;50.984;18.204;2023-03-19T08:46:05;14.90;;;5.40;;
57309;SDS011;43153;50.984;18.204;2023-03-19T08:48:37;14.70;;;7.00;;
57309;SDS011;43153;50.984;18.204;2023-03-19T08:51:09;15.70;;;7.80;;
57309;SDS011;43153;50.984;18.204;2023-03-19T09:32:20;13.00;;;6.10;;
57309;SDS011;43153;50.984;18.204;2023-03-19T09:34:48;11.80;;;6.10;;
57309;SDS011;43153;50.984;18.204;2023-03-19T09:37:20;12.50;;;6.40;;
57309;SDS011;43153;50.984;18.204;2023-03-19T09:39:55;13.60;;;6.70;;
57309;SDS011;43153;50.984;18.204;2023-03-19T09:44:56;12.70;;;6.20;;
57309;SDS011;43153;50.984;18.204;2023-03-19T09:47:29;12.30;;;6.40;;
57309;SDS011;43153;50.984;18.204;2023-03-19T09:49:58;15.10;;;6.50;;
57309;SDS011;43153;50.984;18.204;2023-03-19T09:58:13;12.40;;;6.80;;
57309;SDS011;43153;50.984;18.204;2023-03-19T10:00:45;15.30;;;6.80;;
57309;SDS011;43153;50.984;18.204;2023-03-19T10:17:06;13.90;;;6.70;;
57309;SDS011;43153;50.984;18.204;2023-03-19T10:19:46;14.30;;;6.90;;
57309;SDS011;43153;50.984;18.204;2023-03-19T10:22:29;14.30;;;6.70;;
57309;SDS011;43153;50.984;18.204;2023-03-19T10:25:05;13.80;;;6.70;;
57309;SDS011;43153;50.984;18.204;2023-03-19T10:27:35;16.30;;;8.00;;
57309;SDS011;43153;50.984;18.204;2023-03-19T10:30:13;14.40;;;7.20;;
57309;SDS011;43153;50.984;18.204;2023-03-19T10:32:42;14.90;;;6.80;;
57309;SDS011;43153;50.984;18.204;2023-03-19T10:35:18;15.10;;;8.30;;
57309;SDS011;43153;50.984;18.204;2023-03-19T10:37:45;19.30;;;7.70;;
57309;SDS011;43153;50.984;18.204;2023-03-19T10:40:19;13.20;;;6.20;;
57309;SDS011;43153;50.984;18.204;2023-03-19T10:42:59;11.50;;;6.60;;
57309;SDS011;43153;50.984;18.204;2023-03-19T10:45:45;14.80;;;7.40;;
57309;SDS011;43153;50.984;18.204;2023-03-19T10:48:15;12.20;;;6.60;;
57309;SDS011;43153;50.984;18.204;2023-03-19T10:50:52;13.40;;;6.60;;
57309;SDS011;43153;50.984;18.204;2023-03-19T10:53:31;13.40;;;6.70;;
57309;SDS011;43153;50.984;18.204;2023-03-19T10:56:14;15.10;;;7.20;;
57309;SDS011;43153;50.984;18.204;2023-03-19T10:59:31;13.00;;;6.20;;
57309;SDS011;43153;50.984;18.204;2023-03-19T11:02:16;12.50;;;6.00;;
57309;SDS011;43153;50.984;18.204;2023-03-19T11:05:18;13.90;;;7.40;;
57309;SDS011;43153;50.984;18.204;2023-03-19T11:08:04;14.80;;;7.10;;
57309;SDS011;43153;50.984;18.204;2023-03-19T11:10:59;13.10;;;6.30;;
57309;SDS011;43153;50.984;18.204;2023-03-19T11:13:28;13.50;;;6.50;;
57309;SDS011;43153;50.984;18.204;2023-03-19T11:16:02;12.50;;;6.80;;
57309;SDS011;43153;50.984;18.204;2023-03-19T11:18:35;13.10;;;6.30;;
57309;SDS011;43153;50.984;18.204;2023-03-19T11:21:20;15.40;;;7.00;;
57309;SDS011;43153;50.984;18.204;2023-03-19T11:23:59;13.00;;;6.40;;
57309;SDS011;43153;50.984;18.204;2023-03-19T11:26:37;14.90;;;6.30;;
57309;SDS011;43153;50.984;18.204;2023-03-19T11:29:05;11.70;;;6.20;;
57309;SDS011;43153;50.984;18.204;2023-03-19T11:34:44;13.60;;;6.70;;
57309;SDS011;43153;50.984;18.204;2023-03-19T11:40:19;12.70;;;6.50;;
57309;SDS011;43153;50.984;18.204;2023-03-19T11:45:57;11.40;;;5.90;;
57309;SDS011;43153;50.984;18.204;2023-03-19T12:04:58;11.00;;;5.50;;
57309;SDS011;43153;50.984;18.204;2023-03-19T12:13:21;14.70;;;7.10;;
57309;SDS011;43153;50.984;18.204;2023-03-19T12:16:06;10.40;;;5.20;;
57309;SDS011;43153;50.984;18.204;2023-03-19T12:24:48;12.40;;;5.70;;
57309;SDS011;43153;50.984;18.204;2023-03-19T12:35:36;12.90;;;5.20;;
57309;SDS011;43153;50.984;18.204;2023-03-19T12:38:18;10.60;;;5.40;;
57309;SDS011;43153;50.984;18.204;2023-03-19T12:41:04;10.50;;;5.30;;
57309;SDS011;43153;50.984;18.204;2023-03-19T12:43:55;11.90;;;5.30;;
57309;SDS011;43153;50.984;18.204;2023-03-19T12:46:28;11.70;;;6.30;;
57309;SDS011;43153;50.984;18.204;2023-03-19T12:49:18;10.60;;;5.20;;
57309;SDS011;43153;50.984;18.204;2023-03-19T12:51:58;12.30;;;5.90;;
57309;SDS011;43153;50.984;18.204;2023-03-19T12:54:54;11.10;;;5.80;;
57309;SDS011;43153;50.984;18.204;2023-03-19T12:57:43;11.50;;;5.40;;
57309;SDS011;43153;50.984;18.204;2023-03-19T13:08:18;11.90;;;6.00;;
57309;SDS011;43153;50.984;18.204;2023-03-19T13:10:47;16.90;;;6.00;;
57309;SDS011;43153;50.984;18.204;2023-03-19T13:16:35;10.90;;;5.30;;
57309;SDS011;43153;50.984;18.204;2023-03-19T13:22:00;12.20;;;5.70;;
57309;SDS011;43153;50.984;18.204;2023-03-19T13:24:47;10.60;;;5.10;;
57309;SDS011;43153;50.984;18.204;2023-03-19T13:27:20;10.00;;;5.10;;
57309;SDS011;43153;50.984;18.204;2023-03-19T13:35:24;9.20;;;5.20;;
57309;SDS011;43153;50.984;18.204;2023-03-19T13:38:03;11.90;;;5.80;;
57309;SDS011;43153;50.984;18.204;2023-03-19T13:40:57;10.30;;;5.20;;
57309;SDS011;43153;50.984;18.204;2023-03-19T13:48:50;11.90;;;5.70;;
57309;SDS011;43153;50.984;18.204;2023-03-19T14:01:58;12.90;;;5.40;;
57309;SDS011;43153;50.984;18.204;2023-03-19T14:04:31;11.00;;;5.90;;
57309;SDS011;43153;50.984;18.204;2023-03-19T14:28:23;9.60;;;4.70;;
57309;SDS011;43153;50.984;18.204;2023-03-19T14:30:58;10.80;;;5.40;;
57309;SDS011;43153;50.984;18.204;2023-03-19T14:36:34;11.30;;;5.50;;
57309;SDS011;43153;50.984;18.204;2023-03-19T14:39:23;11.60;;;5.60;;
57309;SDS011;43153;50.984;18.204;2023-03-19T14:42:26;12.20;;;5.70;;
57309;SDS011;43153;50.984;18.204;2023-03-19T14:54:17;14.60;;;6.90;;
57309;SDS011;43153;50.984;18.204;2023-03-19T14:56:51;24.80;;;13.10;;
57309;SDS011;43153;50.984;18.204;2023-03-19T14:59:17;22.60;;;12.00;;
57309;SDS011;43153;50.984;18.204;2023-03-19T15:01:50;15.00;;;6.30;;
57309;SDS011;43153;50.984;18.204;2023-03-19T15:04:22;15.20;;;6.00;;
57309;SDS011;43153;50.984;18.204;2023-03-19T15:06:56;11.70;;;5.30;;
57309;SDS011;43153;50.984;18.204;2023-03-19T15:09:29;11.80;;;5.80;;
57309;SDS011;43153;50.984;18.204;2023-03-19T15:17:38;12.80;;;5.70;;
57309;SDS011;43153;50.984;18.204;2023-03-19T15:20:30;11.10;;;5.30;;
57309;SDS011;43153;50.984;18.204;2023-03-19T16:03:02;12.20;;;6.10;;
57309;SDS011;43153;50.984;18.204;2023-03-19T16:05:37;12.40;;;5.10;;
57309;SDS011;43153;50.984;18.204;2023-03-19T16:08:12;14.80;;;6.60;;
57309;SDS011;43153;50.984;18.204;2023-03-19T16:10:44;13.40;;;6.70;;
57309;SDS011;43153;50.984;18.204;2023-03-19T16:15:55;17.50;;;9.30;;
57309;SDS011;43153;50.984;18.204;2023-03-19T16:18:54;22.80;;;8.90;;
57309;SDS011;43153;50.984;18.204;2023-03-19T16:21:33;18.40;;;8.40;;
57309;SDS011;43153;50.984;18.204;2023-03-19T16:27:14;18.90;;;8.90;;
57309;SDS011;43153;50.984;18.204;2023-03-19T16:29:44;18.90;;;10.10;;
57309;SDS011;43153;50.984;18.204;2023-03-19T16:45:16;25.90;;;12.30;;
57309;SDS011;43153;50.984;18.204;2023-03-19T16:48:04;18.30;;;8.10;;
57309;SDS011;43153;50.984;18.204;2023-03-19T16:50:34;23.50;;;7.70;;
57309;SDS011;43153;50.984;18.204;2023-03-19T16:53:12;16.00;;;6.70;;
57309;SDS011;43153;50.984;18.204;2023-03-19T16:55:50;13.70;;;7.20;;
57309;SDS011;43153;50.984;18.204;2023-03-19T17:00:53;27.30;;;17.50;;
57309;SDS011;43153;50.984;18.204;2023-03-19T17:03:24;58.70;;;41.30;;
57309;SDS011;43153;50.984;18.204;2023-03-19T17:05:52;41.80;;;30.20;;
57309;SDS011;43153;50.984;18.204;2023-03-19T17:08:18;59.50;;;46.20;;
57309;SDS011;43153;50.984;18.204;2023-03-19T17:10:49;62.30;;;39.50;;
57309;SDS011;43153;50.984;18.204;2023-03-19T17:13:24;24.00;;;12.40;;
57309;SDS011;43153;50.984;18.204;2023-03-19T17:15:56;40.60;;;23.60;;
57309;SDS011;43153;50.984;18.204;2023-03-19T17:18:25;22.90;;;13.20;;
57309;SDS011;43153;50.984;18.204;2023-03-19T17:23:49;75.30;;;44.50;;
57309;SDS011;43153;50.984;18.204;2023-03-19T17:28:48;38.00;;;18.80;;
57309;SDS011;43153;50.984;18.204;2023-03-19T17:31:25;32.80;;;16.90;;
57309;SDS011;43153;50.984;18.204;2023-03-19T17:34:00;29.50;;;15.20;;
57309;SDS011;43153;50.984;18.204;2023-03-19T17:36:31;25.80;;;15.20;;
57309;SDS011;43153;50.984;18.204;2023-03-19T17:38:57;29.90;;;17.20;;
57309;SDS011;43153;50.984;18.204;2023-03-19T17:41:27;27.50;;;16.40;;
57309;SDS011;43153;50.984;18.204;2023-03-19T17:43:57;25.00;;;14.10;;
57309;SDS011;43153;50.984;18.204;2023-03-19T17:46:24;39.70;;;20.60;;
57309;SDS011;43153;50.984;18.204;2023-03-19T17:49:04;45.90;;;23.30;;
57309;SDS011;43153;50.984;18.204;2023-03-19T17:51:34;62.40;;;32.80;;
57309;SDS011;43153;50.984;18.204;2023-03-19T17:54:08;55.60;;;28.50;;
57309;SDS011;43153;50.984;18.204;2023-03-19T17:56:37;55.20;;;28.10;;
57309;SDS011;43153;50.984;18.204;2023-03-19T17:59:03;56.80;;;28.00;;
57309;SDS011;43153;50.984;18.204;2023-03-19T18:01:33;64.60;;;28.00;;
57309;SDS011;43153;50.984;18.204;2023-03-19T18:03:59;70.60;;;30.00;;
57309;SDS011;43153;50.984;18.204;2023-03-19T18:06:29;105.40;;;54.10;;
57309;SDS011;43153;50.984;18.204;2023-03-19T18:08:59;146.90;;;64.50;;
57309;SDS011;43153;50.984;18.204;2023-03-19T18:11:25;131.10;;;59.50;;
57309;SDS011;43153;50.984;18.204;2023-03-19T18:13:54;77.60;;;37.10;;
57309;SDS011;43153;50.984;18.204;2023-03-19T18:18:50;52.40;;;26.50;;
57309;SDS011;43153;50.984;18.204;2023-03-19T18:21:17;50.20;;;25.40;;
57309;SDS011;43153;50.984;18.204;2023-03-19T18:23:43;57.40;;;30.70;;
57309;SDS011;43153;50.984;18.204;2023-03-19T18:26:12;183.50;;;98.60;;
57309;SDS011;43153;50.984;18.204;2023-03-19T18:28:45;289.40;;;151.50;;
57309;SDS011;43153;50.984;18.204;2023-03-19T18:31:16;228.30;;;111.50;;
57309;SDS011;43153;50.984;18.204;2023-03-19T18:33:54;130.80;;;63.10;;
57309;SDS011;43153;50.984;18.204;2023-03-19T18:36:27;67.70;;;36.00;;
57309;SDS011;43153;50.984;18.204;2023-03-19T18:38:59;78.00;;;36.80;;
57309;SDS011;43153;50.984;18.204;2023-03-19T18:41:30;65.40;;;29.20;;
57309;SDS011;43153;50.984;18.204;2023-03-19T18:43:59;108.90;;;47.50;;
57309;SDS011;43153;50.984;18.204;2023-03-19T18:46:27;98.40;;;40.80;;
57309;SDS011;43153;50.984;18.204;2023-03-19T18:48:59;71.90;;;34.40;;
57309;SDS011;43153;50.984;18.204;2023-03-19T18:51:32;120.00;;;49.90;;
57309;SDS011;43153;50.984;18.204;2023-03-19T18:54:00;144.90;;;58.70;;
57309;SDS011;43153;50.984;18.204;2023-03-19T18:56:40;227.10;;;95.80;;
57309;SDS011;43153;50.984;18.204;2023-03-19T18:59:19;297.30;;;109.40;;
57309;SDS011;43153;50.984;18.204;2023-03-19T19:02:01;350.30;;;122.00;;
57309;SDS011;43153;50.984;18.204;2023-03-19T19:04:30;322.60;;;119.10;;
57309;SDS011;43153;50.984;18.204;2023-03-19T19:06:57;177.00;;;73.40;;
57309;SDS011;43153;50.984;18.204;2023-03-19T19:09:24;232.80;;;92.70;;
57309;SDS011;43153;50.984;18.204;2023-03-19T19:11:49;201.90;;;74.40;;
57309;SDS011;43153;50.984;18.204;2023-03-19T19:14:31;186.10;;;71.40;;
57309;SDS011;43153;50.984;18.204;2023-03-19T19:17:03;152.50;;;59.30;;
57309;SDS011;43153;50.984;18.204;2023-03-19T19:19:37;134.10;;;50.70;;
57309;SDS011;43153;50.984;18.204;2023-03-19T19:22:09;173.50;;;66.90;;
57309;SDS011;43153;50.984;18.204;2023-03-19T19:24:38;195.00;;;79.80;;
57309;SDS011;43153;50.984;18.204;2023-03-19T19:27:07;160.50;;;68.90;;
57309;SDS011;43153;50.984;18.204;2023-03-19T19:29:36;152.10;;;65.60;;
57309;SDS011;43153;50.984;18.204;2023-03-19T19:32:03;118.20;;;52.10;;
57309;SDS011;43153;50.984;18.204;2023-03-19T19:34:34;101.00;;;48.00;;
57309;SDS011;43153;50.984;18.204;2023-03-19T19:37:00;86.30;;;41.90;;
57309;SDS011;43153;50.984;18.204;2023-03-19T19:39:26;79.00;;;36.60;;
57309;SDS011;43153;50.984;18.204;2023-03-19T19:41:53;50.20;;;22.80;;
57309;SDS011;43153;50.984;18.204;2023-03-19T19:44:20;58.30;;;28.90;;
57309;SDS011;43153;50.984;18.204;2023-03-19T19:46:48;63.90;;;29.00;;
57309;SDS011;43153;50.984;18.204;2023-03-19T19:49:17;59.30;;;25.90;;
57309;SDS011;43153;50.984;18.204;2023-03-19T19:51:44;103.60;;;44.90;;